Time;durP1;ratioP1;P1;durP2;ratioP2;P2;SDS_P1;SDS_P2;PMS_P1;PMS_P2;Temp;Humidity;BMP_temperature;BMP_pressure;BME280_temperature;BME280_humidity;BME280_pressure;Samples;Min_cycle;Max_cycle;Signal;HPM_P1;HPM_P2
2023/06/06 00:00:09;;;;;;;348.25;165.52;;;;;;;16.35;71.51;100011.13;346263;28;2929;-77
2023/06/06 00:00:20;;;;;;;350.48;165.57;;;;;;;16.31;71.53;100014.88;341613;28;4871;-77
2023/06/06 00:00:31;;;;;;;352.20;167.38;;;;;;;16.27;71.66;100003.66;343291;28;1437;-77
2023/06/06 00:00:41;;;;;;;354.42;168.52;;;;;;;16.28;71.80;100009.78;344244;28;3368;-77
2023/06/06 00:00:53;;;;;;;353.73;168.13;;;;;;;16.29;72.08;100011.47;344111;28;1299;-77
2023/06/06 00:01:03;;;;;;;352.60;167.10;;;;;;;16.30;71.85;100014.03;345914;28;1323;-77
2023/06/06 00:01:14;;;;;;;352.07;167.07;;;;;;;16.29;71.96;100006.19;344569;28;1128;-77
2023/06/06 00:01:25;;;;;;;345.80;164.15;;;;;;;16.30;71.90;100006.09;345580;28;1342;-76
2023/06/06 00:01:36;;;;;;;344.02;163.85;;;;;;;16.30;71.85;100008.75;344479;28;1272;-77
2023/06/06 00:01:46;;;;;;;344.92;161.25;;;;;;;16.33;72.08;100006.88;343408;28;881;-76
2023/06/06 00:01:57;;;;;;;349.08;160.88;;;;;;;16.39;71.54;100017.09;343112;28;1377;-76
2023/06/06 00:02:07;;;;;;;351.43;159.97;;;;;;;16.40;71.71;100008.22;343063;28;1216;-77
2023/06/06 00:02:19;;;;;;;351.52;162.13;;;;;;;16.40;71.35;100009.06;341078;28;1482;-78
2023/06/06 00:02:30;;;;;;;349.20;162.18;;;;;;;16.42;71.55;100012.47;340741;29;845;-77
2023/06/06 00:02:44;;;;;;;348.58;161.62;;;;;;;16.44;71.44;100009.75;335396;29;996;-78
2023/06/06 00:02:56;;;;;;;346.58;161.00;;;;;;;16.45;71.53;100011.44;335190;29;1399;-77
2023/06/06 00:03:06;;;;;;;343.75;159.23;;;;;;;16.45;71.40;100008.81;334459;29;1649;-76
2023/06/06 00:03:20;;;;;;;346.75;160.27;;;;;;;16.51;71.47;100011.06;330456;29;1220;-77
2023/06/06 00:03:31;;;;;;;349.67;160.00;;;;;;;16.51;71.25;100013.69;332875;29;1324;-77
2023/06/06 00:03:44;;;;;;;348.35;160.02;;;;;;;16.45;71.66;100012.28;333876;29;1392;-77
2023/06/06 00:03:56;;;;;;;347.70;159.80;;;;;;;16.42;71.66;100011.63;333805;29;1471;-77
2023/06/06 00:04:06;;;;;;;348.38;161.50;;;;;;;16.38;71.79;100010.94;336670;29;1064;-77
2023/06/06 00:04:17;;;;;;;346.55;161.30;;;;;;;16.33;71.83;100007.72;334314;29;878;-77
2023/06/06 00:04:29;;;;;;;347.85;163.55;;;;;;;16.34;71.92;100016.50;328095;30;941;-77
2023/06/06 00:04:39;;;;;;;351.60;166.35;;;;;;;16.33;71.95;100013.00;330579;29;1837;-77
2023/06/06 00:04:50;;;;;;;349.83;164.10;;;;;;;16.33;72.06;100012.16;329448;29;1956;-77
2023/06/06 00:05:00;;;;;;;349.70;163.17;;;;;;;16.33;72.06;100018.28;329167;30;1210;-77
2023/06/06 00:05:13;;;;;;;346.40;160.25;;;;;;;16.38;71.91;100015.38;326747;29;2088;-77
2023/06/06 00:05:25;;;;;;;344.35;158.60;;;;;;;16.39;72.10;100022.38;325367;30;5294;-77
2023/06/06 00:05:36;;;;;;;342.35;159.07;;;;;;;16.42;71.96;100016.91;324068;30;1688;-77
2023/06/06 00:05:48;;;;;;;343.88;161.23;;;;;;;16.44;71.80;100015.88;325572;30;1519;-77
2023/06/06 00:05:59;;;;;;;347.13;164.65;;;;;;;16.44;71.78;100015.03;326657;30;1473;-77
2023/06/06 00:06:09;;;;;;;348.10;163.88;;;;;;;16.44;71.99;100015.03;323433;30;2637;-77
2023/06/06 00:06:20;;;;;;;346.70;161.80;;;;;;;16.42;72.20;100009.84;325045;29;1809;-77
2023/06/06 00:06:33;;;;;;;345.05;158.80;;;;;;;16.41;71.77;100015.22;325220;30;1696;-77
2023/06/06 00:06:44;;;;;;;344.08;159.90;;;;;;;16.29;72.49;100014.97;319623;30;1528;-77
2023/06/06 00:06:54;;;;;;;343.60;160.20;;;;;;;16.26;72.43;100012.50;320232;30;2303;-78
2023/06/06 00:07:08;;;;;;;342.57;159.43;;;;;;;16.24;72.68;100009.09;316210;31;2385;-77
2023/06/06 00:07:19;;;;;;;344.63;160.77;;;;;;;16.32;72.63;100021.03;315922;30;5501;-77
2023/06/06 00:07:32;;;;;;;348.38;164.35;;;;;;;16.32;72.59;100016.59;312904;31;1300;-77
2023/06/06 00:07:44;;;;;;;348.42;162.13;;;;;;;16.35;72.60;100015.56;309614;31;800;-78
2023/06/06 00:07:55;;;;;;;346.92;156.95;;;;;;;16.37;72.59;100018.97;313852;31;1909;-75
2023/06/06 00:08:08;;;;;;;345.57;157.57;;;;;;;16.31;72.36;100009.59;315301;31;1334;-77
2023/06/06 00:08:23;;;;;;;345.42;158.85;;;;;;;16.32;72.88;100013.09;316994;30;2213;-78
2023/06/06 00:08:35;;;;;;;343.80;159.70;;;;;;;16.26;73.04;100017.78;311982;31;5614;-76
2023/06/06 00:08:45;;;;;;;349.65;170.27;;;;;;;16.25;72.87;100017.88;309380;31;1245;-76
2023/06/06 00:08:56;;;;;;;351.98;169.70;;;;;;;16.25;72.85;100012.59;310331;31;2985;-76
2023/06/06 00:09:06;;;;;;;350.53;169.63;;;;;;;16.30;73.04;100018.47;313003;31;2848;-77
2023/06/06 00:09:17;;;;;;;348.83;163.40;;;;;;;16.32;72.70;100015.72;312928;31;803;-77
2023/06/06 00:09:27;;;;;;;351.43;164.30;;;;;;;16.34;72.65;100014.72;313094;31;3120;-77
2023/06/06 00:09:39;;;;;;;353.77;163.48;;;;;;;16.39;72.66;100019.72;313867;31;3457;-77
2023/06/06 00:09:49;;;;;;;347.02;161.63;;;;;;;16.44;72.49;100020.31;313636;31;3464;-77
2023/06/06 00:10:00;;;;;;;343.90;161.73;;;;;;;16.46;72.43;100013.16;310657;31;1155;-77
2023/06/06 00:10:12;;;;;;;345.17;164.07;;;;;;;16.50;72.29;100018.13;306197;32;2616;-77
2023/06/06 00:10:22;;;;;;;348.55;165.15;;;;;;;16.53;72.14;100017.09;307514;31;1387;-77
2023/06/06 00:10:32;;;;;;;347.50;163.43;;;;;;;16.57;72.04;100015.97;309232;31;2424;-77
2023/06/06 00:10:43;;;;;;;347.63;162.43;;;;;;;16.59;72.10;100012.31;302094;32;1096;-77
2023/06/06 00:10:56;;;;;;;345.65;161.40;;;;;;;16.64;71.70;100017.34;304730;32;4066;-77
2023/06/06 00:11:06;;;;;;;347.88;164.40;;;;;;;16.67;71.76;100016.31;302996;32;4874;-77
2023/06/06 00:11:17;;;;;;;348.07;167.10;;;;;;;16.68;71.54;100013.59;298977;32;1611;-77
2023/06/06 00:11:28;;;;;;;349.88;168.50;;;;;;;16.70;71.74;100017.00;299059;32;3915;-77
2023/06/06 00:11:42;;;;;;;349.65;166.05;;;;;;;16.71;71.44;100012.56;299702;32;4199;-77
2023/06/06 00:11:56;;;;;;;347.92;164.57;;;;;;;16.73;71.36;100019.47;298190;33;4951;-77
2023/06/06 00:12:12;;;;;;;347.38;167.20;;;;;;;16.76;71.46;100015.78;295215;33;4325;-78
2023/06/06 00:12:23;;;;;;;351.20;169.57;;;;;;;16.74;71.42;100020.31;296774;32;3416;-77
2023/06/06 00:12:34;;;;;;;351.45;167.27;;;;;;;16.72;70.98;100015.13;297047;33;2576;-77
2023/06/06 00:12:46;;;;;;;347.40;163.50;;;;;;;16.72;71.38;100019.53;294067;33;862;-77
2023/06/06 00:12:57;;;;;;;345.92;164.28;;;;;;;16.73;70.93;100016.81;296789;33;3601;-77
2023/06/06 00:13:08;;;;;;;345.35;165.20;;;;;;;16.71;71.50;100017.84;295341;33;5850;-77
2023/06/06 00:13:20;;;;;;;344.70;163.17;;;;;;;16.65;71.54;100015.56;290552;33;6680;-77
2023/06/06 00:13:32;;;;;;;347.75;160.32;;;;;;;16.65;71.68;100015.56;287132;34;1323;-77
2023/06/06 00:13:43;;;;;;;349.80;162.10;;;;;;;16.61;71.47;100013.06;290879;33;6481;-77
2023/06/06 00:13:56;;;;;;;347.50;160.88;;;;;;;16.54;71.70;100010.88;287808;34;6133;-77
2023/06/06 00:14:07;;;;;;;340.35;160.38;;;;;;;16.56;71.98;100014.28;287319;34;5606;-77
2023/06/06 00:14:18;;;;;;;341.52;161.18;;;;;;;16.55;71.73;100012.56;286082;34;5985;-77
2023/06/06 00:14:31;;;;;;;343.10;162.80;;;;;;;16.49;72.04;100013.78;284340;34;1341;-77
2023/06/06 00:14:41;;;;;;;346.73;166.75;;;;;;;16.52;72.08;100012.75;281466;34;4811;-77
2023/06/06 00:14:52;;;;;;;344.17;162.57;;;;;;;16.46;72.31;100013.16;282123;34;4416;-78
2023/06/06 00:15:02;;;;;;;345.43;161.77;;;;;;;16.46;72.50;100015.78;285565;34;1254;-77
2023/06/06 00:15:14;;;;;;;344.25;160.88;;;;;;;16.49;72.06;100015.56;277249;35;1455;-78
2023/06/06 00:15:26;;;;;;;348.27;168.85;;;;;;;16.50;72.42;100015.50;279583;34;8111;-77
2023/06/06 00:15:38;;;;;;;348.15;170.15;;;;;;;16.50;72.33;100014.63;279073;35;9542;-77
2023/06/06 00:15:49;;;;;;;349.52;169.00;;;;;;;16.51;72.25;100013.69;277893;34;8821;-77
2023/06/06 00:15:59;;;;;;;348.87;168.13;;;;;;;16.52;71.99;100018.03;278306;35;745;-77
2023/06/06 00:16:12;;;;;;;350.40;168.80;;;;;;;16.55;72.39;100010.78;275351;35;8679;-77
2023/06/06 00:18:11;;;;;;;339.36;155.39;;;;;;;16.53;72.15;100014.47;2502362;27;20261;-77
2023/06/06 00:18:22;;;;;;;344.63;165.70;;;;;;;16.50;72.58;100017.28;351615;28;3010;-77
2023/06/06 00:18:32;;;;;;;346.77;167.47;;;;;;;16.46;72.77;100018.44;348876;28;855;-77
2023/06/06 00:18:45;;;;;;;347.35;166.60;;;;;;;16.44;72.87;100020.31;347426;28;1235;-77
2023/06/06 00:18:55;;;;;;;346.20;165.77;;;;;;;16.43;72.67;100013.31;347208;28;1366;-78
2023/06/06 00:19:06;;;;;;;345.80;167.13;;;;;;;16.43;72.95;100018.59;348773;28;1255;-77
2023/06/06 00:19:20;;;;;;;348.27;168.20;;;;;;;16.41;72.92;100015.22;348913;28;769;-77
2023/06/06 00:19:32;;;;;;;350.75;166.68;;;;;;;16.40;72.86;100019.63;348722;28;4811;-77
2023/06/06 00:19:43;;;;;;;350.75;165.40;;;;;;;16.36;72.87;100017.25;347487;28;1409;-77
2023/06/06 00:19:53;;;;;;;353.43;169.07;;;;;;;16.35;73.16;100015.56;347190;28;1546;-77
2023/06/06 00:20:07;;;;;;;351.98;168.55;;;;;;;16.27;73.51;100016.84;347995;28;1641;-77
2023/06/06 00:20:17;;;;;;;349.10;166.23;;;;;;;16.29;73.44;100012.34;350483;28;5573;-76
2023/06/06 00:20:32;;;;;;;345.42;164.00;;;;;;;16.29;73.37;100014.97;350315;28;828;-76
2023/06/06 00:20:43;;;;;;;346.10;164.88;;;;;;;16.35;73.34;100015.56;346087;28;4987;-76
2023/06/06 00:20:54;;;;;;;348.40;165.90;;;;;;;16.37;73.32;100017.19;343657;28;1442;-76
2023/06/06 00:21:05;;;;;;;344.13;163.73;;;;;;;16.38;73.30;100018.88;344720;28;1524;-77
2023/06/06 00:21:16;;;;;;;346.90;163.27;;;;;;;16.39;73.12;100017.09;346042;28;1345;-77
2023/06/06 00:21:27;;;;;;;347.20;163.10;;;;;;;16.39;73.09;100019.72;343801;28;1290;-77
2023/06/06 00:21:38;;;;;;;348.75;163.18;;;;;;;16.38;73.25;100015.38;347335;28;1694;-77
2023/06/06 00:21:48;;;;;;;345.20;162.45;;;;;;;16.35;73.30;100021.69;349426;28;1400;-77
2023/06/06 00:21:59;;;;;;;345.47;163.97;;;;;;;16.33;73.45;100022.72;347488;28;1130;-78
2023/06/06 00:22:09;;;;;;;346.52;164.48;;;;;;;16.25;73.79;100017.88;347558;28;867;-78
2023/06/06 00:22:23;;;;;;;347.50;163.47;;;;;;;16.18;74.25;100017.38;343901;28;876;-77
2023/06/06 00:22:35;;;;;;;347.42;164.57;;;;;;;16.09;74.35;100019.69;345866;28;5046;-77
2023/06/06 00:22:46;;;;;;;345.05;165.82;;;;;;;16.02;74.65;100023.63;345991;28;1327;-77
2023/06/06 00:22:56;;;;;;;344.63;164.55;;;;;;;15.98;74.84;100022.09;347568;28;1295;-77
2023/06/06 00:23:07;;;;;;;345.47;162.97;;;;;;;15.99;75.00;100026.44;345987;28;1598;-77
2023/06/06 00:23:18;;;;;;;347.00;162.18;;;;;;;16.00;75.13;100025.50;345209;28;1687;-77
2023/06/06 00:23:28;;;;;;;348.35;160.88;;;;;;;16.03;75.03;100010.31;346228;28;813;-77
2023/06/06 00:23:39;;;;;;;349.42;158.60;;;;;;;16.05;74.77;100018.16;346185;28;754;-77
2023/06/06 00:23:49;;;;;;;357.00;160.73;;;;;;;16.06;75.15;100015.44;346334;28;1420;-77
2023/06/06 00:24:00;;;;;;;353.33;160.82;;;;;;;16.05;75.04;100016.38;347266;28;1106;-77
2023/06/06 00:24:11;;;;;;;351.67;163.33;;;;;;;16.08;74.93;100013.56;340729;29;1259;-78
2023/06/06 00:24:21;;;;;;;345.27;162.48;;;;;;;16.12;74.73;100015.09;343546;28;1113;-77
2023/06/06 00:24:32;;;;;;;347.13;161.38;;;;;;;16.18;74.59;100011.25;341539;28;1197;-77
2023/06/06 00:24:42;;;;;;;349.23;160.17;;;;;;;16.18;74.58;100012.09;340661;29;1218;-77
2023/06/06 00:24:53;;;;;;;348.90;158.98;;;;;;;16.23;74.30;100012.69;337941;29;1261;-77
2023/06/06 00:25:04;;;;;;;347.77;160.63;;;;;;;16.25;74.36;100015.22;341330;28;1333;-77
2023/06/06 00:25:15;;;;;;;347.38;161.32;;;;;;;16.21;74.31;100014.56;343345;28;1294;-77
2023/06/06 00:25:25;;;;;;;346.87;161.20;;;;;;;16.20;74.50;100012.84;342046;28;1230;-77
2023/06/06 00:25:35;;;;;;;346.17;160.55;;;;;;;16.20;74.44;100012.84;343361;28;1003;-78
2023/06/06 00:25:47;;;;;;;344.70;162.77;;;;;;;16.24;74.33;100013.53;344030;28;1252;-79
2023/06/06 00:25:58;;;;;;;344.73;164.68;;;;;;;16.27;74.19;100011.56;342023;28;1396;-78
2023/06/06 00:26:08;;;;;;;340.05;162.98;;;;;;;16.33;73.97;100012.16;345950;28;1371;-79
2023/06/06 00:26:19;;;;;;;344.80;164.23;;;;;;;16.36;73.82;100011.97;341885;28;1473;-77
2023/06/06 00:26:29;;;;;;;348.98;166.82;;;;;;;16.39;73.71;100019.72;338298;28;1367;-77
2023/06/06 00:26:40;;;;;;;354.27;167.80;;;;;;;16.39;73.87;100011.81;341815;28;1035;-78
2023/06/06 00:26:50;;;;;;;352.65;167.65;;;;;;;16.42;73.75;100016.91;338333;29;1583;-78
2023/06/06 00:27:01;;;;;;;354.53;168.73;;;;;;;16.42;73.80;100011.63;338250;29;1930;-78
2023/06/06 00:27:11;;;;;;;352.77;169.50;;;;;;;16.44;73.62;100015.03;335597;29;1295;-78
2023/06/06 00:27:21;;;;;;;351.17;167.40;;;;;;;16.45;73.70;100014.94;338831;29;1035;-78
2023/06/06 00:27:35;;;;;;;345.87;163.90;;;;;;;16.44;73.42;100010.59;339013;29;869;-78
2023/06/06 00:27:46;;;;;;;341.65;160.55;;;;;;;16.47;73.52;100014.81;336593;29;1195;-77
2023/06/06 00:27:56;;;;;;;343.47;160.50;;;;;;;16.46;73.31;100007.88;334265;29;1208;-78
2023/06/06 00:28:07;;;;;;;346.25;162.98;;;;;;;16.43;73.37;100008.91;336228;29;1459;-77
2023/06/06 00:28:17;;;;;;;348.40;165.07;;;;;;;16.46;73.28;100018.44;335533;29;1690;-76
2023/06/06 00:28:27;;;;;;;347.63;165.80;;;;;;;16.47;73.31;100015.66;332974;29;1177;-78
2023/06/06 00:28:38;;;;;;;346.50;164.27;;;;;;;16.49;73.38;100015.56;337633;29;1886;-77
2023/06/06 00:28:48;;;;;;;346.27;166.27;;;;;;;16.49;73.35;100007.66;332562;29;2188;-77
2023/06/06 00:28:59;;;;;;;346.10;168.75;;;;;;;16.50;73.24;100014.63;331739;29;814;-77
2023/06/06 00:29:09;;;;;;;348.70;169.87;;;;;;;16.51;73.47;100011.06;332947;29;1151;-78
2023/06/06 00:29:20;;;;;;;347.52;168.15;;;;;;;16.51;73.62;100006.63;334116;29;1673;-77
2023/06/06 00:29:30;;;;;;;349.10;169.60;;;;;;;16.48;73.63;100012.09;333002;29;1129;-77
2023/06/06 00:29:40;;;;;;;346.60;169.43;;;;;;;16.43;73.58;100013.31;331752;29;1609;-77
2023/06/06 00:29:51;;;;;;;346.45;168.68;;;;;;;16.41;73.81;100009.91;331003;29;1471;-77
2023/06/06 00:30:02;;;;;;;345.40;166.10;;;;;;;16.41;73.99;100012.56;326602;29;1933;-77
2023/06/06 00:30:13;;;;;;;344.55;164.65;;;;;;;16.42;74.14;100016.91;324318;30;1393;-76
2023/06/06 00:30:24;;;;;;;347.85;167.25;;;;;;;16.44;73.67;100013.22;322690;30;2162;-76
2023/06/06 00:30:34;;;;;;;350.40;171.20;;;;;;;16.42;73.64;100012.47;323929;30;2065;-76
2023/06/06 00:30:44;;;;;;;347.77;170.30;;;;;;;16.42;73.62;100011.63;321338;30;2524;-77
2023/06/06 00:30:55;;;;;;;345.77;168.33;;;;;;;16.45;73.69;100014.09;318510;31;1316;-77
2023/06/06 00:31:05;;;;;;;344.10;165.93;;;;;;;16.42;73.75;100014.25;316803;30;2655;-77
2023/06/06 00:31:16;;;;;;;346.73;166.35;;;;;;;16.41;73.93;100005.50;316005;30;2855;-77
2023/06/06 00:31:26;;;;;;;347.90;168.63;;;;;;;16.42;73.94;100011.63;320895;30;1074;-77
2023/06/06 00:31:36;;;;;;;346.95;169.15;;;;;;;16.43;73.64;100013.31;319553;30;1877;-78
2023/06/06 00:31:47;;;;;;;343.87;168.67;;;;;;;16.44;73.73;100013.22;319677;30;1806;-77
2023/06/06 00:31:57;;;;;;;346.40;169.10;;;;;;;16.47;73.60;100017.47;317346;31;1052;-77
2023/06/06 00:32:07;;;;;;;347.97;171.77;;;;;;;16.48;73.39;100012.09;321356;30;2569;-77
2023/06/06 00:32:19;;;;;;;349.03;170.97;;;;;;;16.45;73.42;100012.28;316535;31;2768;-77
2023/06/06 00:32:30;;;;;;;347.60;168.20;;;;;;;16.41;73.87;100009.91;312562;31;3786;-78
2023/06/06 00:32:40;;;;;;;345.88;165.43;;;;;;;16.35;74.09;100010.28;313952;31;1232;-77
2023/06/06 00:32:51;;;;;;;346.87;165.83;;;;;;;16.33;74.29;100012.16;314386;31;3082;-77
2023/06/06 00:33:01;;;;;;;350.27;168.38;;;;;;;16.36;74.24;100014.63;312626;31;3889;-77
2023/06/06 00:33:12;;;;;;;351.27;169.50;;;;;;;16.38;74.37;100015.38;310671;31;856;-77
2023/06/06 00:33:22;;;;;;;351.35;170.45;;;;;;;16.30;74.42;100013.19;310133;31;3538;-77
2023/06/06 00:33:32;;;;;;;349.30;167.93;;;;;;;16.28;74.66;100017.69;312405;31;3449;-77
2023/06/06 00:33:43;;;;;;;347.13;164.82;;;;;;;16.24;74.92;100014.38;316250;31;956;-77
2023/06/06 00:33:53;;;;;;;347.10;164.13;;;;;;;16.23;74.84;100010.03;314603;31;2368;-77
2023/06/06 00:34:04;;;;;;;348.87;165.30;;;;;;;16.19;74.95;100013.78;309541;31;2189;-77
2023/06/06 00:34:14;;;;;;;352.15;167.57;;;;;;;16.19;74.54;100005.88;308138;31;2922;-77
2023/06/06 00:34:25;;;;;;;351.13;168.23;;;;;;;16.19;75.07;100016.44;312805;31;943;-78
2023/06/06 00:34:35;;;;;;;351.17;169.93;;;;;;;16.19;75.25;100011.16;310386;31;2912;-77
2023/06/06 00:34:46;;;;;;;350.58;169.23;;;;;;;16.20;75.55;100007.56;307331;31;5265;-76
2023/06/06 00:34:56;;;;;;;356.07;172.27;;;;;;;16.17;75.25;100007.75;306204;32;3538;-77
2023/06/06 00:35:07;;;;;;;361.53;174.67;;;;;;;16.21;75.42;100013.72;306013;32;4474;-77
2023/06/06 00:35:17;;;;;;;362.33;175.70;;;;;;;16.19;75.15;100011.16;302261;32;4368;-76
2023/06/06 00:35:27;;;;;;;356.15;172.00;;;;;;;16.20;75.23;100012.84;301450;32;1201;-77
2023/06/06 00:35:38;;;;;;;354.87;170.97;;;;;;;16.16;75.42;100015.75;300371;32;4422;-77
2023/06/06 00:35:48;;;;;;;354.05;170.05;;;;;;;16.17;75.58;100012.19;301740;32;4453;-77
2023/06/06 00:35:59;;;;;;;356.83;171.43;;;;;;;16.07;76.00;100011.00;302152;32;1410;-78
2023/06/06 00:36:10;;;;;;;356.70;170.10;;;;;;;16.02;76.18;100019.22;295013;33;863;-78
2023/06/06 00:36:20;;;;;;;356.90;168.60;;;;;;;15.94;76.74;100010.88;294317;33;2771;-78
2023/06/06 00:36:31;;;;;;;356.73;168.00;;;;;;;15.96;76.68;100001.06;294189;33;4077;-78
2023/06/06 00:36:41;;;;;;;357.37;168.87;;;;;;;15.96;76.68;100009.00;295030;33;843;-78
2023/06/06 00:36:51;;;;;;;357.25;169.02;;;;;;;15.92;77.12;100007.47;294562;33;5097;-77
2023/06/06 00:37:02;;;;;;;355.90;167.90;;;;;;;15.88;76.86;100012.06;289894;33;6530;-77
2023/06/06 00:37:12;;;;;;;355.58;167.77;;;;;;;15.89;76.97;100007.63;290110;34;1183;-77
2023/06/06 00:37:23;;;;;;;354.77;166.40;;;;;;;15.92;77.14;100007.47;290611;33;6894;-77
2023/06/06 00:37:33;;;;;;;355.80;164.63;;;;;;;15.94;77.13;100000.31;289764;33;6048;-77
2023/06/06 00:37:43;;;;;;;356.53;163.87;;;;;;;16.00;76.80;100015.81;288185;34;1291;-77
2023/06/06 00:37:54;;;;;;;353.83;162.83;;;;;;;15.98;76.71;100007.13;284915;34;6425;-77
2023/06/06 00:38:04;;;;;;;349.45;163.77;;;;;;;16.02;76.76;100002.53;283435;34;3263;-78
2023/06/06 00:38:15;;;;;;;349.90;164.63;;;;;;;16.03;76.90;100009.50;283479;34;3839;-78
2023/06/06 00:38:25;;;;;;;358.42;165.07;;;;;;;16.03;76.48;100009.50;283604;34;1222;-78
2023/06/06 00:38:35;;;;;;;362.10;167.30;;;;;;;16.03;76.74;100006.84;276786;35;4586;-78
2023/06/06 00:38:47;;;;;;;358.75;167.77;;;;;;;16.06;76.67;100009.28;275319;35;6015;-77
2023/06/06 00:38:57;;;;;;;355.52;166.50;;;;;;;16.09;76.68;100004.69;280818;35;1486;-77
2023/06/06 00:39:07;;;;;;;354.90;165.60;;;;;;;16.08;76.49;100010.06;276748;35;6619;-77
2023/06/06 00:39:18;;;;;;;353.55;165.05;;;;;;;16.09;76.32;100009.13;273826;35;9145;-77
2023/06/06 00:39:28;;;;;;;355.03;169.23;;;;;;;16.10;76.29;100011.69;273064;36;892;-77
2023/06/06 00:39:39;;;;;;;349.70;163.65;;;;;;;16.11;76.36;100009.88;276610;35;9926;-77
2023/06/06 00:39:49;;;;;;;350.73;164.27;;;;;;;16.11;76.34;100012.53;275584;35;8571;-77
2023/06/06 00:41:43;;;;;;;343.76;151.13;;;;;;;16.26;76.46;100015.16;2497895;27;20281;-77
2023/06/06 00:41:54;;;;;;;342.87;160.13;;;;;;;16.25;76.19;100010.81;354482;27;911;-77
2023/06/06 00:42:04;;;;;;;345.13;161.90;;;;;;;16.23;76.10;100007.41;351575;28;1655;-77
2023/06/06 00:42:15;;;;;;;346.90;164.32;;;;;;;16.18;76.58;100009.44;348842;28;1379;-78
2023/06/06 00:42:25;;;;;;;351.07;164.73;;;;;;;16.11;76.90;100010.75;348837;28;1291;-78
2023/06/06 00:42:36;;;;;;;347.30;162.70;;;;;;;16.06;76.88;100009.28;348915;28;836;-78
2023/06/06 00:42:46;;;;;;;345.88;160.70;;;;;;;16.04;76.98;100012.03;347440;28;1260;-77
2023/06/06 00:42:57;;;;;;;344.40;159.87;;;;;;;16.06;77.22;100012.78;348720;28;1288;-77
2023/06/06 00:43:07;;;;;;;346.40;161.65;;;;;;;16.06;77.34;100014.56;348807;28;1325;-78
2023/06/06 00:43:19;;;;;;;347.63;164.40;;;;;;;16.10;77.37;100016.97;348793;28;1194;-77
2023/06/06 00:43:29;;;;;;;345.20;165.10;;;;;;;16.14;77.00;100013.22;351728;28;1381;-78
2023/06/06 00:43:40;;;;;;;344.60;164.33;;;;;;;16.16;76.90;100011.31;351125;28;1142;-77
2023/06/06 00:43:50;;;;;;;344.50;164.98;;;;;;;16.20;76.79;100010.22;352098;28;3143;-77
2023/06/06 00:44:00;;;;;;;349.57;166.27;;;;;;;16.19;76.68;100005.03;349478;28;5111;-77
2023/06/06 00:44:11;;;;;;;351.77;167.10;;;;;;;16.14;76.73;100017.63;348592;28;3227;-77
2023/06/06 00:44:21;;;;;;;357.27;170.40;;;;;;;16.09;76.73;100012.63;349009;28;912;-77
2023/06/06 00:44:31;;;;;;;351.63;169.93;;;;;;;16.07;77.27;100009.22;350196;28;3561;-77
2023/06/06 00:44:42;;;;;;;350.20;169.23;;;;;;;16.03;77.05;100026.16;348846;28;1025;-78
2023/06/06 00:44:52;;;;;;;346.03;165.33;;;;;;;15.99;77.51;100014.09;348791;28;1204;-78
2023/06/06 00:45:03;;;;;;;348.67;163.48;;;;;;;15.97;77.65;100015.97;350139;28;1323;-78
2023/06/06 00:45:13;;;;;;;347.52;161.68;;;;;;;16.01;77.75;100019.28;350196;28;1305;-78
2023/06/06 00:45:24;;;;;;;345.37;159.57;;;;;;;16.02;77.75;100003.38;349166;28;1169;-77
2023/06/06 00:45:34;;;;;;;345.00;161.17;;;;;;;16.06;77.72;100017.22;348868;28;1341;-77
2023/06/06 00:45:45;;;;;;;348.98;161.65;;;;;;;16.07;77.45;100011.00;344699;28;1482;-77
2023/06/06 00:45:55;;;;;;;350.67;164.17;;;;;;;16.08;77.13;100016.19;347401;28;1267;-78
2023/06/06 00:46:05;;;;;;;348.42;161.38;;;;;;;16.05;77.35;100008.44;346493;28;1460;-78
2023/06/06 00:46:16;;;;;;;342.97;159.37;;;;;;;16.05;77.19;100013.72;343319;28;1358;-78
2023/06/06 00:46:27;;;;;;;341.17;156.55;;;;;;;16.06;77.53;100012.78;348769;28;1092;-79
2023/06/06 00:46:37;;;;;;;337.67;155.93;;;;;;;16.09;77.29;100015.25;347429;28;1387;-79
2023/06/06 00:46:47;;;;;;;345.57;158.80;;;;;;;16.12;77.42;100015.09;344695;28;1350;-78
2023/06/06 00:46:58;;;;;;;347.33;162.40;;;;;;;16.15;77.18;100006.97;344737;28;1232;-77
2023/06/06 00:47:08;;;;;;;351.75;166.02;;;;;;;16.17;77.03;100013.03;345963;28;1527;-77
2023/06/06 00:47:19;;;;;;;345.07;165.13;;;;;;;16.21;77.06;100011.06;343392;28;1015;-77
2023/06/06 00:47:29;;;;;;;345.02;163.68;;;;;;;16.22;76.86;100010.13;344835;28;805;-77
2023/06/06 00:47:39;;;;;;;345.67;163.83;;;;;;;16.23;76.65;100010.03;346047;28;925;-78
2023/06/06 00:47:50;;;;;;;344.38;161.60;;;;;;;16.26;76.51;100015.16;345916;28;1386;-78
2023/06/06 00:48:00;;;;;;;343.50;162.03;;;;;;;16.22;76.78;100010.97;343404;28;1192;-77
2023/06/06 00:48:11;;;;;;;343.52;163.13;;;;;;;16.18;76.95;100012.09;344304;28;1346;-77
2023/06/06 00:48:22;;;;;;;344.67;163.93;;;;;;;16.10;76.84;100006.41;341144;28;1307;-77
2023/06/06 00:48:33;;;;;;;344.15;162.02;;;;;;;16.06;77.40;100010.16;340804;28;1448;-79
2023/06/06 00:48:43;;;;;;;342.27;160.17;;;;;;;16.04;77.36;100009.38;343596;28;939;-78
2023/06/06 00:48:55;;;;;;;341.13;162.15;;;;;;;16.01;77.65;100011.38;342851;28;1319;-77
2023/06/06 00:49:06;;;;;;;344.27;162.27;;;;;;;16.02;77.77;100013.94;343328;28;869;-78
2023/06/06 00:49:16;;;;;;;348.38;163.57;;;;;;;16.04;77.93;100012.03;342128;28;1260;-77
2023/06/06 00:49:27;;;;;;;350.48;161.60;;;;;;;16.06;77.72;100014.56;340607;28;1209;-77
2023/06/06 00:49:37;;;;;;;352.93;164.20;;;;;;;16.08;77.48;100005.63;337333;29;1320;-78
2023/06/06 00:49:47;;;;;;;350.63;162.05;;;;;;;16.11;77.49;100010.75;337812;29;1242;-77
2023/06/06 00:49:58;;;;;;;348.20;163.90;;;;;;;16.15;77.34;100009.63;339467;29;802;-77
2023/06/06 00:50:12;;;;;;;346.80;162.73;;;;;;;16.18;77.11;100009.44;338704;29;1183;-77
2023/06/06 00:50:24;;;;;;;345.05;163.57;;;;;;;16.23;76.97;100010.03;336585;29;1735;-77
2023/06/06 00:50:36;;;;;;;344.02;165.18;;;;;;;16.19;76.99;100015.59;335646;29;1917;-78
2023/06/06 00:50:47;;;;;;;345.10;162.15;;;;;;;16.15;77.23;100008.78;340609;29;1487;-78
2023/06/06 00:50:57;;;;;;;345.55;162.35;;;;;;;16.17;77.36;100014.81;338114;29;1282;-78
2023/06/06 00:51:08;;;;;;;346.33;162.47;;;;;;;16.19;77.05;100005.03;337586;29;1334;-78
2023/06/06 00:51:18;;;;;;;345.95;164.15;;;;;;;16.17;77.41;100010.38;339345;29;1412;-78
2023/06/06 00:51:28;;;;;;;346.43;165.00;;;;;;;16.17;77.35;100018.31;336688;29;1361;-77
2023/06/06 00:51:39;;;;;;;345.93;167.60;;;;;;;16.09;77.73;100004.69;341030;28;1420;-77
2023/06/06 00:51:49;;;;;;;346.33;164.82;;;;;;;16.07;77.75;100014.50;340857;28;1581;-78
2023/06/06 00:52:00;;;;;;;348.23;165.97;;;;;;;16.09;77.60;100012.63;338061;29;1214;-78
2023/06/06 00:52:11;;;;;;;347.55;164.23;;;;;;;16.13;77.70;100016.78;340047;28;1663;-77
2023/06/06 00:52:21;;;;;;;349.05;166.20;;;;;;;16.16;77.47;100011.31;340146;28;2150;-77
2023/06/06 00:52:32;;;;;;;349.00;165.23;;;;;;;16.16;77.73;100013.97;338150;29;920;-77
2023/06/06 00:52:46;;;;;;;345.80;162.82;;;;;;;16.15;77.44;100009.63;339845;29;1989;-78
2023/06/06 00:52:56;;;;;;;344.27;163.10;;;;;;;16.14;77.72;100010.56;337764;29;4726;-78
2023/06/06 00:53:07;;;;;;;344.20;164.83;;;;;;;16.13;77.56;100011.50;334532;29;2820;-77
2023/06/06 00:53:17;;;;;;;345.80;167.20;;;;;;;16.10;77.78;100016.97;336904;29;2887;-77